Time;durP1;ratioP1;P1;durP2;ratioP2;P2;SDS_P1;SDS_P2;PMS_P1;PMS_P2;Temp;Humidity;BMP_temperature;BMP_pressure;BME280_temperature;BME280_humidity;BME280_pressure;Samples;Min_cycle;Max_cycle;Signal;HPM_P1;HPM_P2
2022/05/22 00:00:22;;;;;;;12.48;3.70;;;10.00;99.90;;;;;;5032316;28;20081;-78
2022/05/22 00:02:48;;;;;;;9.68;3.85;;;9.90;99.90;;;;;;5031318;28;20045;-78
2022/05/22 00:05:17;;;;;;;13.00;4.18;;;9.90;99.90;;;;;;5032280;28;20087;-79
2022/05/22 00:07:43;;;;;;;9.93;4.50;;;9.80;99.90;;;;;;5030925;28;20064;-79
2022/05/22 00:10:10;;;;;;;12.38;3.55;;;9.80;99.90;;;;;;5028811;28;20156;-78
2022/05/22 00:12:35;;;;;;;9.60;4.47;;;9.80;99.90;;;;;;5061407;28;20559;-78
2022/05/22 00:15:01;;;;;;;10.82;4.28;;;9.70;99.90;;;;;;5032165;28;20042;-78
2022/05/22 00:17:27;;;;;;;8.98;3.83;;;9.70;99.90;;;;;;5030718;28;20042;-77
2022/05/22 00:19:53;;;;;;;9.50;3.63;;;9.70;99.90;;;;;;5028759;28;20424;-79
2022/05/22 00:22:21;;;;;;;8.05;3.35;;;9.70;99.90;;;;;;5028427;28;20400;-77
2022/05/22 00:24:47;;;;;;;9.18;3.90;;;9.60;99.90;;;;;;5023465;28;20048;-79
2022/05/22 00:27:15;;;;;;;9.20;3.72;;;9.60;99.90;;;;;;5058896;28;20049;-79
2022/05/22 00:29:41;;;;;;;9.20;3.47;;;9.60;99.90;;;;;;5033127;28;20050;-79
2022/05/22 00:32:07;;;;;;;8.25;3.65;;;9.60;99.90;;;;;;5059361;28;20191;-79
2022/05/22 00:34:33;;;;;;;11.35;3.70;;;9.60;99.90;;;;;;5031804;28;20073;-79
2022/05/22 00:37:04;;;;;;;9.63;3.30;;;9.50;99.90;;;;;;5030409;28;20057;-79
2022/05/22 00:39:29;;;;;;;10.57;3.90;;;9.50;99.90;;;;;;5041388;28;20120;-79
2022/05/22 00:41:57;;;;;;;9.15;3.60;;;9.60;99.90;;;;;;5029562;28;20096;-79
2022/05/22 00:44:23;;;;;;;9.80;3.95;;;9.50;99.90;;;;;;5027305;28;20060;-78
2022/05/22 00:46:51;;;;;;;8.60;4.00;;;9.50;99.90;;;;;;5029644;28;20117;-79
2022/05/22 00:49:27;;;;;;;8.80;3.97;;;9.40;99.90;;;;;;5028745;28;20064;-79
2022/05/22 00:51:59;;;;;;;10.52;4.35;;;9.40;99.90;;;;;;5023691;28;20045;-78
2022/05/22 00:54:32;;;;;;;7.20;3.60;;;9.40;99.90;;;;;;5028668;28;20090;-77
2022/05/22 00:57:13;;;;;;;10.73;3.70;;;9.30;99.90;;;;;;5030377;28;20046;-78
2022/05/22 00:59:42;;;;;;;6.88;3.45;;;9.30;99.90;;;;;;5027200;28;20061;-78
2022/05/22 01:02:08;;;;;;;9.80;3.80;;;9.30;99.90;;;;;;5030644;28;20033;-78
2022/05/22 01:04:36;;;;;;;15.48;4.63;;;9.30;99.90;;;;;;5031048;28;20068;-78
2022/05/22 01:07:05;;;;;;;9.52;4.18;;;9.30;99.90;;;;;;5035506;28;20048;-78
2022/05/22 01:09:31;;;;;;;8.25;4.10;;;9.30;99.90;;;;;;5033100;28;20048;-78
2022/05/22 01:12:12;;;;;;;12.52;4.65;;;9.30;99.90;;;;;;5034218;28;20963;-79
2022/05/22 01:14:39;;;;;;;14.85;5.18;;;9.30;99.90;;;;;;5024477;28;20463;-78
2022/05/22 01:17:09;;;;;;;7.47;3.80;;;9.30;99.90;;;;;;5028958;28;20053;-77
2022/05/22 01:19:36;;;;;;;10.18;4.47;;;9.30;99.90;;;;;;5052207;28;20158;-78
2022/05/22 01:22:08;;;;;;;9.63;4.38;;;9.30;99.90;;;;;;5028060;28;20054;-77
2022/05/22 01:24:35;;;;;;;10.98;4.22;;;9.20;99.90;;;;;;5019490;28;20075;-79
2022/05/22 01:27:05;;;;;;;8.85;4.00;;;9.20;99.90;;;;;;5024712;28;20045;-78
2022/05/22 01:29:31;;;;;;;10.82;4.25;;;9.20;99.90;;;;;;5028085;28;20496;-78
2022/05/22 01:31:57;;;;;;;10.70;4.53;;;9.20;99.90;;;;;;5058539;28;20080;-78
2022/05/22 01:34:23;;;;;;;10.80;4.90;;;9.10;99.90;;;;;;5028079;28;20208;-78
2022/05/22 01:36:48;;;;;;;10.13;4.43;;;9.10;99.90;;;;;;5026597;28;20128;-78
2022/05/22 01:39:14;;;;;;;9.85;4.32;;;9.10;99.90;;;;;;5027906;28;20130;-77
2022/05/22 01:41:42;;;;;;;10.88;4.70;;;9.10;99.90;;;;;;5030579;28;20053;-78
2022/05/22 01:44:09;;;;;;;12.02;5.70;;;9.00;99.90;;;;;;5026451;28;20317;-78
2022/05/22 01:46:35;;;;;;;13.27;4.85;;;8.90;99.90;;;;;;5023856;28;20092;-77
2022/05/22 01:49:03;;;;;;;10.23;4.35;;;8.90;99.90;;;;;;5027246;28;20494;-77
2022/05/22 01:51:37;;;;;;;12.25;5.45;;;8.90;99.90;;;;;;5027141;28;20464;-76
2022/05/22 01:54:04;;;;;;;11.73;5.03;;;8.80;99.90;;;;;;5031336;28;20139;-78
2022/05/22 01:56:31;;;;;;;11.93;4.75;;;8.90;99.90;;;;;;5031451;28;20037;-78
2022/05/22 01:58:56;;;;;;;12.30;4.97;;;8.80;99.90;;;;;;5030920;28;20073;-76
2022/05/22 02:01:22;;;;;;;10.95;4.45;;;8.80;99.90;;;;;;5062925;28;20104;-77
2022/05/22 02:03:50;;;;;;;10.40;4.57;;;8.80;99.90;;;;;;5030084;28;20052;-78
2022/05/22 02:06:16;;;;;;;11.77;4.22;;;8.80;99.90;;;;;;5030626;28;20034;-78
2022/05/22 02:08:42;;;;;;;9.75;4.50;;;8.80;99.90;;;;;;5020122;28;20061;-77
2022/05/22 02:11:08;;;;;;;8.65;4.35;;;8.80;99.90;;;;;;5029811;28;20045;-78
2022/05/22 02:13:44;;;;;;;10.27;4.75;;;8.80;99.90;;;;;;5030741;28;20049;-79
2022/05/22 02:16:10;;;;;;;7.80;4.82;;;8.70;99.90;;;;;;5027359;28;20056;-77
2022/05/22 02:18:36;;;;;;;9.77;4.03;;;8.70;99.90;;;;;;5032600;28;20053;-79
2022/05/22 02:21:01;;;;;;;9.27;4.75;;;8.70;99.90;;;;;;5032512;28;20499;-77
2022/05/22 02:23:27;;;;;;;13.73;5.30;;;8.70;99.90;;;;;;5023518;28;20049;-77
2022/05/22 02:25:54;;;;;;;9.07;4.95;;;8.70;99.90;;;;;;5023183;28;20048;-77
2022/05/22 02:28:22;;;;;;;7.88;4.25;;;8.70;99.90;;;;;;5030950;28;20055;-78
2022/05/22 02:30:51;;;;;;;9.73;5.15;;;8.70;99.90;;;;;;5031216;28;20121;-78
2022/05/22 02:33:17;;;;;;;11.15;4.75;;;8.70;99.90;;;;;;5028141;28;20136;-78
2022/05/22 02:35:47;;;;;;;10.10;4.85;;;8.70;99.90;;;;;;5033789;28;20045;-77
2022/05/22 02:38:14;;;;;;;12.07;5.40;;;8.60;99.90;;;;;;5022529;28;20057;-77
2022/05/22 02:40:39;;;;;;;12.77;5.40;;;8.60;99.90;;;;;;5026580;28;20049;-78
2022/05/22 02:43:06;;;;;;;11.02;5.18;;;8.60;99.90;;;;;;5026793;28;20051;-75
2022/05/22 02:45:34;;;;;;;12.18;5.93;;;8.60;99.90;;;;;;5028189;28;20063;-76
2022/05/22 02:48:00;;;;;;;11.55;5.28;;;8.60;99.90;;;;;;5058010;28;20056;-77
2022/05/22 02:50:28;;;;;;;11.85;5.20;;;8.60;99.90;;;;;;5062108;28;20621;-75
2022/05/22 02:52:54;;;;;;;9.45;5.00;;;8.50;99.90;;;;;;5031230;28;20053;-73
2022/05/22 02:55:20;;;;;;;11.63;5.20;;;8.50;99.90;;;;;;5027881;28;20103;-76
2022/05/22 02:57:46;;;;;;;12.05;5.95;;;8.50;99.90;;;;;;5021306;28;20087;-76
2022/05/22 03:00:32;;;;;;;12.57;5.82;;;8.50;99.90;;;;;;5022324;28;20046;-77
2022/05/22 03:02:58;;;;;;;13.95;5.47;;;8.50;99.90;;;;;;5025562;28;20133;-75
2022/05/22 03:06:37;;;;;;;11.55;5.38;;;8.50;99.90;;;;;;5028421;28;20186;-76
2022/05/22 03:08:14;;;;;;;14.40;5.50;;;8.40;99.90;;;;;;5025367;28;20084;-75
2022/05/22 03:10:40;;;;;;;13.80;6.05;;;8.40;99.90;;;;;;5029262;28;20053;-76
2022/05/22 03:13:06;;;;;;;12.38;5.93;;;8.40;99.90;;;;;;5029258;28;20096;-76
2022/05/22 03:15:35;;;;;;;12.43;6.05;;;8.40;99.90;;;;;;5026204;28;20045;-79
2022/05/22 03:18:03;;;;;;;12.82;6.88;;;8.40;99.90;;;;;;5046707;28;20056;-79
2022/05/22 03:20:30;;;;;;;13.93;5.60;;;8.40;99.90;;;;;;5030790;28;20045;-79
2022/05/22 03:22:58;;;;;;;10.50;5.82;;;8.40;99.90;;;;;;5027954;28;20064;-78
2022/05/22 03:25:24;;;;;;;12.63;7.82;;;8.40;99.90;;;;;;5031381;28;20397;-79
2022/05/22 03:27:49;;;;;;;11.80;6.88;;;8.40;99.90;;;;;;5031546;28;20045;-79
2022/05/22 03:30:15;;;;;;;13.43;6.93;;;8.40;99.90;;;;;;5024766;28;20137;-79
2022/05/22 03:32:43;;;;;;;11.27;6.13;;;8.40;99.90;;;;;;5031834;28;20053;-77
2022/05/22 03:35:10;;;;;;;14.70;6.82;;;8.40;99.90;;;;;;5035950;28;20041;-78
2022/05/22 03:37:37;;;;;;;12.07;6.85;;;8.40;99.90;;;;;;5035214;28;20041;-78
2022/05/22 03:40:02;;;;;;;14.80;7.55;;;8.70;99.90;;;;;;5035086;28;20443;-77
2022/05/22 03:42:29;;;;;;;12.32;6.00;;;8.40;99.90;;;;;;5034276;28;20048;-79
2022/05/22 03:44:55;;;;;;;10.15;5.13;;;8.70;99.90;;;;;;5029223;28;20053;-79
2022/05/22 03:47:21;;;;;;;9.68;5.95;;;8.40;99.90;;;;;;5032466;28;20112;-79
2022/05/22 03:49:47;;;;;;;9.82;5.60;;;8.40;99.90;;;;;;5024926;28;20160;-78
2022/05/22 03:52:12;;;;;;;11.63;5.50;;;8.30;99.90;;;;;;5024336;28;20476;-78
2022/05/22 03:54:38;;;;;;;13.43;5.85;;;8.40;99.90;;;;;;5029382;28;20081;-78
2022/05/22 03:57:04;;;;;;;11.48;5.20;;;8.40;99.90;;;;;;5028955;28;20059;-77
2022/05/22 03:59:30;;;;;;;11.40;6.43;;;8.40;99.90;;;;;;5030735;28;20053;-79
2022/05/22 04:01:56;;;;;;;11.82;6.20;;;8.40;99.90;;;;;;5032470;28;20056;-79
2022/05/22 04:04:22;;;;;;;10.80;6.00;;;8.40;99.90;;;;;;5029596;28;20057;-78
2022/05/22 04:06:47;;;;;;;10.27;5.80;;;8.50;99.90;;;;;;5027315;28;20040;-78
2022/05/22 04:09:13;;;;;;;9.80;5.50;;;8.50;99.90;;;;;;5025828;28;20493;-78
2022/05/22 04:11:40;;;;;;;11.45;6.00;;;8.50;99.90;;;;;;5031695;28;20037;-78
2022/05/22 04:14:06;;;;;;;12.05;6.05;;;8.50;99.90;;;;;;5032197;28;20052;-78
2022/05/22 04:16:31;;;;;;;13.10;6.03;;;8.50;99.90;;;;;;5030159;28;20404;-77
2022/05/22 04:19:00;;;;;;;10.88;6.28;;;8.50;99.90;;;;;;5032502;28;20098;-77
2022/05/22 04:21:25;;;;;;;12.32;5.45;;;8.50;99.90;;;;;;5030757;28;20057;-79
2022/05/22 04:26:38;;;;;;;10.65;5.82;;;8.60;99.90;;;;;;5030762;28;20133;-78
2022/05/22 04:29:04;;;;;;;10.18;5.85;;;8.70;99.90;;;;;;5062548;28;20140;-78
2022/05/22 04:31:30;;;;;;;11.23;5.45;;;8.70;99.90;;;;;;5028951;28;20550;-78
2022/05/22 04:33:58;;;;;;;12.48;5.75;;;8.70;99.90;;;;;;4991365;28;20058;-78
2022/05/22 04:36:23;;;;;;;11.00;5.45;;;8.80;99.90;;;;;;4991833;28;20065;-76
2022/05/22 04:38:49;;;;;;;10.48;5.60;;;8.80;99.90;;;;;;5005513;28;20046;-78
2022/05/22 04:41:17;;;;;;;12.38;6.05;;;8.80;99.90;;;;;;5010655;28;20075;-76
2022/05/22 04:43:46;;;;;;;14.52;6.22;;;8.90;99.90;;;;;;5011878;28;20076;-79
2022/05/22 04:46:11;;;;;;;14.18;6.45;;;9.00;99.90;;;;;;5007273;28;20053;-78
2022/05/22 04:48:37;;;;;;;12.65;6.18;;;9.00;99.90;;;;;;5009002;28;20049;-78
2022/05/22 04:51:03;;;;;;;12.10;6.05;;;9.10;99.90;;;;;;5010765;28;20041;-78
2022/05/22 04:53:31;;;;;;;8.25;5.32;;;9.10;99.90;;;;;;5008528;28;20075;-77
2022/05/22 04:55:57;;;;;;;10.27;5.97;;;9.10;99.90;;;;;;5012130;28;20042;-76
2022/05/22 04:58:23;;;;;;;14.27;6.93;;;9.10;99.90;;;;;;4992161;28;20045;-77
2022/05/22 05:00:49;;;;;;;12.73;6.28;;;9.20;99.90;;;;;;5008844;28;20043;-77
2022/05/22 05:03:15;;;;;;;12.93;5.80;;;9.20;99.90;;;;;;5009287;28;20041;-76
2022/05/22 05:05:41;;;;;;;14.00;6.25;;;9.20;99.90;;;;;;4985445;28;20088;-75
2022/05/22 05:08:07;;;;;;;15.43;7.18;;;9.30;99.90;;;;;;5010550;28;20037;-77
2022/05/22 05:10:32;;;;;;;14.23;6.63;;;9.30;99.90;;;;;;4990479;28;20493;-76
2022/05/22 05:13:01;;;;;;;15.73;7.68;;;9.30;99.90;;;;;;5006337;28;20053;-77
2022/05/22 05:15:29;;;;;;;14.40;7.30;;;9.30;99.90;;;;;;4989002;28;20049;-77
2022/05/22 05:17:56;;;;;;;17.38;7.45;;;9.30;99.90;;;;;;4984670;28;20050;-77
2022/05/22 05:20:23;;;;;;;17.30;7.25;;;9.40;99.90;;;;;;5011430;28;20050;-76
2022/05/22 05:22:49;;;;;;;15.38;7.70;;;9.40;99.90;;;;;;5005976;28;20041;-77
2022/05/22 05:25:15;;;;;;;14.93;7.90;;;9.40;99.90;;;;;;5010751;28;20049;-78
2022/05/22 05:27:41;;;;;;;14.38;8.27;;;9.50;99.90;;;;;;4980890;28;20034;-78
2022/05/22 05:30:08;;;;;;;16.17;8.23;;;9.50;99.90;;;;;;5004878;28;20085;-78
2022/05/22 05:32:33;;;;;;;17.08;6.65;;;9.60;99.90;;;;;;5006379;28;20417;-77
2022/05/22 05:35:02;;;;;;;16.33;7.72;;;9.60;99.90;;;;;;4992726;28;20049;-79
2022/05/22 05:37:28;;;;;;;14.43;6.88;;;9.70;99.90;;;;;;5007307;28;20038;-78
2022/05/22 05:39:54;;;;;;;17.83;7.03;;;9.70;99.90;;;;;;5004961;28;20056;-78
2022/05/22 05:42:21;;;;;;;12.40;6.55;;;9.70;99.90;;;;;;4987777;28;20156;-78
2022/05/22 05:44:47;;;;;;;18.30;7.53;;;9.80;99.90;;;;;;5006420;28;20038;-78
2022/05/22 05:47:13;;;;;;;18.90;8.25;;;9.80;99.90;;;;;;4987305;28;20038;-78
2022/05/22 05:49:39;;;;;;;18.08;7.78;;;9.90;99.90;;;;;;5002294;28;20042;-78
2022/05/22 05:52:05;;;;;;;17.83;7.68;;;10.00;99.90;;;;;;5008221;28;20056;-78
2022/05/22 05:54:34;;;;;;;23.42;8.77;;;10.00;99.90;;;;;;5009602;28;20398;-79
2022/05/22 05:57:00;;;;;;;22.52;9.13;;;10.10;99.90;;;;;;4989904;28;20050;-79
2022/05/22 05:59:27;;;;;;;22.25;9.40;;;10.10;99.90;;;;;;5005067;28;20057;-79
2022/05/22 06:01:52;;;;;;;20.88;9.13;;;10.20;99.90;;;;;;5004127;28;20547;-79
2022/05/22 06:04:18;;;;;;;24.70;9.82;;;10.30;99.90;;;;;;4988539;28;20049;-80
2022/05/22 06:06:44;;;;;;;21.15;9.52;;;10.40;99.90;;;;;;5007091;28;20073;-80
2022/05/22 06:09:10;;;;;;;23.55;10.27;;;10.40;99.90;;;;;;5008899;28;20389;-81
2022/05/22 06:11:35;;;;;;;21.95;9.65;;;10.50;99.90;;;;;;4987431;28;20042;-80
2022/05/22 06:14:01;;;;;;;21.08;9.57;;;10.50;99.90;;;;;;5002531;28;20134;-80
2022/05/22 06:16:26;;;;;;;23.02;9.55;;;10.60;99.90;;;;;;4988801;28;20034;-79
2022/05/22 06:18:52;;;;;;;19.50;9.27;;;10.70;99.90;;;;;;5020014;28;20046;-80
2022/05/22 06:21:19;;;;;;;23.20;9.18;;;10.80;99.90;;;;;;4983751;28;20418;-80
2022/05/22 06:23:46;;;;;;;22.38;9.15;;;10.90;99.90;;;;;;4998738;28;20045;-79
2022/05/22 06:26:13;;;;;;;22.67;8.48;;;11.00;99.90;;;;;;5002974;28;20054;-88
2022/05/22 06:28:39;;;;;;;21.35;8.93;;;11.10;99.90;;;;;;4989519;28;20053;-82
2022/05/22 06:31:06;;;;;;;26.58;8.88;;;11.20;99.90;;;;;;4988310;28;20455;-81
2022/05/22 06:33:32;;;;;;;23.63;8.35;;;11.20;99.90;;;;;;5020915;28;20524;-79
2022/05/22 06:35:59;;;;;;;27.85;8.63;;;11.30;99.90;;;;;;5028205;28;20516;-79
2022/05/22 06:41:10;;;;;;;24.70;8.77;;;11.50;99.90;;;;;;5033509;28;20093;-80
2022/05/22 06:43:36;;;;;;;23.98;8.05;;;11.60;99.90;;;;;;5031030;28;20048;-83
2022/05/22 06:46:03;;;;;;;21.02;7.55;;;11.70;99.90;;;;;;5028458;28;20047;-82
2022/05/22 06:48:28;;;;;;;19.45;7.32;;;11.80;99.90;;;;;;5029332;28;20393;-82
2022/05/22 06:50:54;;;;;;;24.25;7.15;;;11.80;99.90;;;;;;5033444;28;20032;-81
2022/05/22 06:53:20;;;;;;;19.88;7.40;;;11.90;99.90;;;;;;5015892;28;20049;-82
2022/05/22 06:55:46;;;;;;;23.55;7.65;;;12.00;99.90;;;;;;5028182;28;20049;-82
2022/05/22 06:58:12;;;;;;;19.30;6.22;;;12.00;99.90;;;;;;5026353;28;20056;-82
2022/05/22 07:00:37;;;;;;;20.10;7.03;;;12.00;99.90;;;;;;5017369;28;20093;-83
2022/05/22 07:03:03;;;;;;;19.13;6.60;;;12.10;99.90;;;;;;5025860;28;20095;-82
2022/05/22 07:05:28;;;;;;;23.23;5.50;;;12.30;99.90;;;;;;5030988;28;20038;-82
2022/05/22 07:07:54;;;;;;;18.80;5.80;;;12.50;99.90;;;;;;5028483;28;20091;-83
2022/05/22 07:11:38;;;;;;;18.25;5.63;;;12.60;99.90;;;;;;5031715;28;20091;-82
2022/05/22 07:13:05;;;;;;;13.65;5.32;;;12.80;99.90;;;;;;5032478;28;20107;-82
2022/05/22 07:15:31;;;;;;;13.82;5.72;;;13.00;99.90;;;;;;5026745;28;20053;-82
2022/05/22 07:17:56;;;;;;;14.50;5.55;;;13.30;99.90;;;;;;5030682;28;20410;-83
2022/05/22 07:20:22;;;;;;;10.85;4.82;;;13.60;99.90;;;;;;5031977;28;20049;-82
2022/05/22 07:22:48;;;;;;;15.25;4.50;;;13.90;99.90;;;;;;5028099;28;20041;-83
2022/05/22 07:25:14;;;;;;;14.23;3.88;;;14.30;99.90;;;;;;5027744;28;20121;-83
2022/05/22 07:27:41;;;;;;;15.75;4.75;;;14.40;99.90;;;;;;5033595;28;20056;-82
2022/05/22 07:30:07;;;;;;;13.05;5.00;;;14.70;99.90;;;;;;5025052;28;20112;-82
2022/05/22 07:32:33;;;;;;;14.60;4.43;;;15.00;99.90;;;;;;5029023;28;20045;-83
2022/05/22 07:34:59;;;;;;;10.98;3.80;;;15.20;99.90;;;;;;5029409;28;20049;-83
2022/05/22 07:37:25;;;;;;;13.80;4.07;;;15.30;99.90;;;;;;5026333;28;20034;-82
2022/05/22 07:39:51;;;;;;;15.13;4.70;;;15.50;99.90;;;;;;5028975;28;20378;-83
2022/05/22 07:42:16;;;;;;;15.20;4.82;;;15.70;99.90;;;;;;5032438;28;20084;-83
2022/05/22 07:44:42;;;;;;;11.13;4.35;;;15.70;99.90;;;;;;5022303;28;20049;-83
2022/05/22 07:47:07;;;;;;;13.63;4.40;;;15.90;99.90;;;;;;5014758;28;20529;-83
2022/05/22 07:52:17;;;;;;;12.15;3.92;;;16.20;99.90;;;;;;5061498;28;20049;-82
2022/05/22 07:54:43;;;;;;;11.52;3.40;;;16.30;99.90;;;;;;5029770;28;20672;-83
2022/05/22 07:57:08;;;;;;;10.25;2.28;;;16.40;99.90;;;;;;5027813;28;20547;-82
2022/05/22 07:59:35;;;;;;;11.75;2.75;;;16.40;99.90;;;;;;5022861;28;20155;-83
2022/05/22 08:02:02;;;;;;;13.60;2.83;;;16.30;99.90;;;;;;5032318;28;20536;-83
2022/05/22 08:04:29;;;;;;;9.80;3.33;;;16.10;99.90;;;;;;5024650;28;20041;-83
2022/05/22 08:06:54;;;;;;;10.50;2.67;;;16.00;99.90;;;;;;5026473;28;20042;-83
2022/05/22 08:09:20;;;;;;;11.50;3.45;;;15.90;99.90;;;;;;5029747;28;20049;-82
2022/05/22 08:11:45;;;;;;;12.20;2.88;;;15.70;99.90;;;;;;5030084;28;20481;-84
2022/05/22 08:14:11;;;;;;;12.80;3.35;;;15.70;99.90;;;;;;5022881;28;20076;-83
2022/05/22 08:16:37;;;;;;;7.68;2.28;;;15.90;99.90;;;;;;5023742;28;20168;-83
2022/05/22 08:19:03;;;;;;;11.68;3.10;;;16.10;99.90;;;;;;5029096;28;20050;-83
2022/05/22 08:21:29;;;;;;;10.95;3.17;;;16.30;99.90;;;;;;5015294;28;20076;-83
2022/05/22 08:23:54;;;;;;;9.68;2.25;;;16.50;99.90;;;;;;5020527;28;20057;-83
2022/05/22 08:26:20;;;;;;;9.45;2.30;;;16.60;99.90;;;;;;5027530;28;20042;-83
2022/05/22 08:28:46;;;;;;;8.70;2.00;;;16.70;99.90;;;;;;5031205;28;20065;-83
2022/05/22 08:31:11;;;;;;;9.50;2.10;;;16.70;99.90;;;;;;5018294;28;20052;-82
2022/05/22 08:33:37;;;;;;;7.75;2.08;;;16.70;99.90;;;;;;5028637;28;20492;-83
2022/05/22 08:36:04;;;;;;;12.70;2.63;;;16.50;99.90;;;;;;5023357;28;20535;-83
2022/05/22 08:38:29;;;;;;;10.00;2.40;;;16.50;99.90;;;;;;5031248;28;20071;-83
2022/05/22 08:41:10;;;;;;;8.05;2.25;;;16.40;99.90;;;;;;5031528;28;20053;-83
2022/05/22 08:44:00;;;;;;;9.13;2.35;;;16.40;99.90;;;;;;5028769;28;20048;-83
2022/05/22 08:46:58;;;;;;;10.77;2.15;;;16.60;99.90;;;;;;5024870;28;20050;-83
2022/05/22 08:49:33;;;;;;;10.75;1.98;;;16.80;99.90;;;;;;5026022;28;20049;-83
2022/05/22 08:52:24;;;;;;;7.85;1.80;;;16.90;99.90;;;;;;5028471;28;20091;-83
2022/05/22 08:54:56;;;;;;;8.45;2.38;;;16.90;99.90;;;;;;5024926;28;20064;-83
2022/05/22 09:00:19;;;;;;;7.45;1.80;;;17.10;99.90;;;;;;5020856;28;20136;-83
2022/05/22 09:02:58;;;;;;;10.60;1.65;;;17.40;99.90;;;;;;5029294;28;20144;-83
2022/05/22 09:05:28;;;;;;;9.98;1.65;;;17.60;99.90;;;;;;5046661;28;20049;-83
2022/05/22 09:08:06;;;;;;;15.20;2.35;;;17.80;99.90;;;;;;5046106;28;20088;-83
2022/05/22 09:10:35;;;;;;;5.78;1.67;;;17.90;99.90;;;;;;5029255;28;20049;-83
2022/05/22 09:13:22;;;;;;;8.63;1.88;;;17.90;99.90;;;;;;5028579;28;20041;-83
2022/05/22 09:15:57;;;;;;;9.63;1.90;;;17.90;99.90;;;;;;5021717;28;20064;-82
2022/05/22 09:18:36;;;;;;;8.75;1.75;;;17.80;99.90;;;;;;5025225;28;20057;-83
2022/05/22 09:21:15;;;;;;;8.63;2.00;;;18.00;99.90;;;;;;5045589;28;20065;-83
2022/05/22 09:23:52;;;;;;;5.70;1.60;;;18.20;99.90;;;;;;5018691;28;20052;-83
2022/05/22 09:26:27;;;;;;;8.52;1.83;;;18.50;99.90;;;;;;5030255;28;20053;-83
2022/05/22 09:29:15;;;;;;;8.52;1.73;;;18.70;99.90;;;;;;5026831;28;20049;-83
2022/05/22 09:32:06;;;;;;;5.80;1.80;;;18.70;99.90;;;;;;5018792;28;20505;-83
2022/05/22 09:34:49;;;;;;;7.07;1.98;;;18.60;99.90;;;;;;5020623;28;20436;-83
2022/05/22 09:37:39;;;;;;;10.55;1.58;;;18.40;99.90;;;;;;5029037;28;20087;-83
2022/05/22 09:40:28;;;;;;;8.23;1.60;;;18.20;99.90;;;;;;5027931;28;20444;-83
2022/05/22 09:43:29;;;;;;;10.63;1.85;;;18.00;99.90;;;;;;5027412;28;20496;-83
2022/05/22 09:46:20;;;;;;;7.95;1.60;;;18.00;99.90;;;;;;5023382;28;20037;-84
2022/05/22 09:49:33;;;;;;;8.27;1.73;;;18.20;99.90;;;;;;5025057;28;20393;-83
2022/05/22 09:52:34;;;;;;;7.28;1.25;;;18.40;99.90;;;;;;4988509;28;20050;-83
2022/05/22 09:55:26;;;;;;;7.25;1.58;;;18.60;99.90;;;;;;4961856;28;20055;-83
2022/05/22 09:58:14;;;;;;;10.20;2.03;;;18.70;99.90;;;;;;5020829;28;20072;-83
2022/05/22 10:00:47;;;;;;;5.65;1.60;;;18.80;99.90;;;;;;5013513;28;20057;-83
2022/05/22 10:03:36;;;;;;;10.27;1.50;;;18.90;99.90;;;;;;5027769;28;20042;-83
2022/05/22 10:06:26;;;;;;;6.32;1.17;;;19.00;99.90;;;;;;5025242;28;20053;-83
2022/05/22 10:09:06;;;;;;;4.13;0.98;;;19.20;99.90;;;;;;5027766;28;20057;-83
2022/05/22 10:11:56;;;;;;;8.07;1.48;;;19.30;99.90;;;;;;5027824;28;20049;-83
2022/05/22 10:14:49;;;;;;;7.25;1.55;;;19.50;99.90;;;;;;5027537;28;20099;-84
2022/05/22 10:18:01;;;;;;;4.90;1.13;;;19.60;99.60;;;;;;5027863;28;20049;-83
2022/05/22 10:20:46;;;;;;;6.13;1.35;;;19.70;99.30;;;;;;5021174;28;20046;-84
2022/05/22 10:23:37;;;;;;;5.07;1.00;;;19.90;99.90;;;;;;5017045;28;20104;-84
2022/05/22 10:26:35;;;;;;;6.70;1.10;;;20.00;99.90;;;;;;5028408;28;20064;-84
2022/05/22 10:29:11;;;;;;;6.47;1.40;;;20.20;99.90;;;;;;5024450;28;20144;-84
2022/05/22 10:31:50;;;;;;;6.60;1.50;;;20.30;99.90;;;;;;5020043;28;20068;-84
2022/05/22 10:34:35;;;;;;;7.57;0.95;;;20.50;99.90;;;;;;5020551;28;20053;-84
2022/05/22 10:37:10;;;;;;;5.07;1.30;;;20.60;99.90;;;;;;5029339;28;20564;-83
2022/05/22 10:39:35;;;;;;;5.82;1.70;;;20.80;99.90;;;;;;5023011;28;20068;-84
2022/05/22 10:44:56;;;;;;;4.70;1.17;;;21.10;98.60;;;;;;5026414;28;20501;-84
2022/05/22 10:47:30;;;;;;;7.03;1.02;;;21.30;98.00;;;;;;5023910;28;20379;-83
2022/05/22 10:49:58;;;;;;;7.28;1.20;;;21.40;96.40;;;;;;5022454;28;20819;-82
2022/05/22 10:52:30;;;;;;;5.28;0.93;;;21.60;97.50;;;;;;5027966;28;20068;-83
2022/05/22 10:54:56;;;;;;;8.02;1.42;;;21.70;95.70;;;;;;5026778;28;20400;-86
2022/05/22 10:57:23;;;;;;;5.90;0.90;;;21.80;96.70;;;;;;5054712;28;20045;-83
2022/05/22 10:59:49;;;;;;;5.18;0.90;;;21.80;95.60;;;;;;5024272;28;20057;-86
2022/05/22 11:02:29;;;;;;;4.43;0.95;;;21.60;96.60;;;;;;5023781;28;20472;-85
2022/05/22 11:04:57;;;;;;;6.07;1.10;;;21.40;95.50;;;;;;5024182;28;20481;-84
2022/05/22 11:07:51;;;;;;;9.48;1.30;;;21.20;96.10;;;;;;5025780;28;20053;-85
2022/05/22 11:10:26;;;;;;;3.72;0.93;;;21.10;95.20;;;;;;5021629;28;20524;-85
2022/05/22 11:13:08;;;;;;;6.00;1.15;;;21.00;95.80;;;;;;5020057;28;20053;-84
2022/05/22 11:15:42;;;;;;;5.68;1.20;;;20.90;95.40;;;;;;5017062;28;20565;-83
2022/05/22 11:18:23;;;;;;;8.23;1.10;;;20.90;96.70;;;;;;5024380;28;20045;-87
2022/05/22 11:20:55;;;;;;;7.57;1.38;;;20.70;95.90;;;;;;5026829;28;20501;-83
2022/05/22 11:23:47;;;;;;;6.40;1.45;;;20.70;97.60;;;;;;5023170;28;20489;-86
2022/05/22 11:26:39;;;;;;;7.20;1.40;;;20.40;98.70;;;;;;5031182;28;20124;-87
2022/05/22 11:29:35;;;;;;;7.38;1.30;;;20.30;99.00;;;;;;5026526;28;20038;-84
2022/05/22 11:32:45;;;;;;;5.85;1.13;;;20.10;99.50;;;;;;5024331;28;20069;-87
2022/05/22 11:36:04;;;;;;;4.93;1.08;;;19.80;99.90;;;;;;5018921;28;20411;-86
2022/05/22 11:38:32;;;;;;;6.90;1.30;;;19.60;98.50;;;;;;5014756;28;20052;-85
2022/05/22 11:41:20;;;;;;;5.65;1.30;;;19.60;98.50;;;;;;5023510;28;20107;-87
2022/05/22 11:43:55;;;;;;;8.93;1.23;;;19.80;99.80;;;;;;5026039;28;20030;-80
2022/05/22 11:46:33;;;;;;;6.90;1.20;;;20.00;99.80;;;;;;5023000;28;20038;-82
2022/05/22 11:49:08;;;;;;;5.43;1.25;;;20.20;99.30;;;;;;5024726;28;20041;-82
2022/05/22 11:52:10;;;;;;;7.47;1.25;;;20.40;99.40;;;;;;5023333;28;20549;-83
2022/05/22 11:54:51;;;;;;;8.05;1.52;;;20.70;99.20;;;;;;5028824;28;20049;-82
2022/05/22 11:57:35;;;;;;;9.38;2.13;;;20.90;98.60;;;;;;5025475;28;20057;-82
2022/05/22 12:00:19;;;;;;;6.30;1.67;;;21.20;97.80;;;;;;5026476;28;20056;-82
2022/05/22 12:03:17;;;;;;;6.78;1.23;;;21.40;95.90;;;;;;5021795;28;20132;-82
2022/05/22 12:06:07;;;;;;;6.32;1.05;;;21.50;95.40;;;;;;4984387;28;20054;-81
2022/05/22 12:08:49;;;;;;;8.82;1.50;;;21.70;95.90;;;;;;5024483;28;20087;-78
2022/05/22 12:11:27;;;;;;;7.38;1.52;;;21.60;94.70;;;;;;5057300;28;20053;-77
2022/05/22 12:14:17;;;;;;;8.45;1.33;;;21.40;95.30;;;;;;5024731;28;20053;-80
2022/05/22 12:17:12;;;;;;;6.80;1.02;;;21.40;95.90;;;;;;5022858;28;20037;-89
2022/05/22 12:19:44;;;;;;;4.65;1.17;;;21.50;95.70;;;;;;5033879;28;20042;-88
2022/05/22 12:22:17;;;;;;;6.53;1.13;;;21.70;95.00;;;;;;5023789;28;20507;-88
2022/05/22 12:24:53;;;;;;;6.22;0.93;;;21.90;94.00;;;;;;5022367;28;20425;-88
2022/05/22 12:27:22;;;;;;;7.10;1.10;;;22.00;94.40;;;;;;5026409;28;20041;-88
2022/05/22 12:30:23;;;;;;;5.88;1.38;;;21.90;94.00;;;;;;5029402;28;20132;-88
2022/05/22 12:33:04;;;;;;;6.28;1.13;;;21.90;93.90;;;;;;5028256;28;20045;-88
2022/05/22 12:35:30;;;;;;;5.18;1.15;;;21.90;93.60;;;;;;5054568;28;20414;-88
2022/05/22 12:38:01;;;;;;;5.40;1.00;;;21.90;94.10;;;;;;5027290;28;20069;-88
2022/05/22 12:40:58;;;;;;;5.07;1.00;;;21.80;94.10;;;;;;5029608;28;20037;-84
2022/05/22 12:43:25;;;;;;;5.70;1.00;;;21.80;94.00;;;;;;5033123;28;20045;-85
2022/05/22 12:46:03;;;;;;;6.10;1.02;;;21.70;92.70;;;;;;5033077;28;20108;-84
2022/05/22 12:48:32;;;;;;;8.73;1.30;;;21.60;92.90;;;;;;5022242;28;20127;-85
2022/05/22 12:51:06;;;;;;;6.80;1.30;;;21.60;93.60;;;;;;5028320;28;20624;-85
2022/05/22 12:53:32;;;;;;;7.47;1.10;;;21.80;93.80;;;;;;5029109;28;20202;-85
2022/05/22 12:56:21;;;;;;;6.75;1.52;;;21.90;93.90;;;;;;5023421;28;20532;-85
2022/05/22 12:58:59;;;;;;;10.75;1.10;;;22.00;93.90;;;;;;5024987;28;20045;-86
2022/05/22 13:01:38;;;;;;;6.15;1.27;;;21.90;93.10;;;;;;5027119;28;20049;-84
2022/05/22 13:04:16;;;;;;;5.88;1.08;;;21.80;92.50;;;;;;5031418;28;20041;-84
2022/05/22 13:06:59;;;;;;;5.97;1.17;;;21.80;93.50;;;;;;5027956;28;20037;-85
2022/05/22 13:09:35;;;;;;;7.95;1.48;;;21.60;93.00;;;;;;5030979;28;20049;-85
2022/05/22 13:12:26;;;;;;;7.95;1.20;;;21.50;92.80;;;;;;5030134;28;20049;-84
2022/05/22 13:15:03;;;;;;;5.28;1.42;;;21.50;93.50;;;;;;5022303;28;20053;-85
2022/05/22 13:17:41;;;;;;;5.55;1.10;;;21.50;94.00;;;;;;5021739;28;20137;-85
2022/05/22 13:20:40;;;;;;;5.93;1.20;;;21.50;93.90;;;;;;5023413;28;20060;-85
2022/05/22 13:23:13;;;;;;;6.18;1.08;;;21.50;94.50;;;;;;5024188;28;20045;-84